SBOSBO MIA / KMIA
Speedbird OnlineSpeedbird Online MIA / KMIA

Miami International Airport
07:59 27.6°C

Location Miami, United States
Latitude: 25.79319953918457
Longitude: -80.29060363769531
Altitude 2 Meter / 8 Feet
Distance 7,149 KM / 4,442 Miles
from London.
Time Zone UTC -4 hours (America/New_York)
Codes IATA: MIA
ICAO: KMIA
Currency £1 equals USD 1.23
METAR KMIA 271053Z 13003KT 10SM SCT025 SCT250 27/23 A2999 RMK AO2 SLP156 T02670233 $
TAF KMIA 271120Z 2712/2818 VRB05KT P6SM FEW030 SCT080 BKN250 FM271600 12010KT P6SM VCTS SCT025CB BKN050 FM271900 12010KT P6SM VCSH SCT030 BKN060 FM280100 VRB04KT P6SM SCT030 BKN050 FM281500 13010KT P6SM SCT030 BKN050
Weather As Of 27 Jun 2022 07:59
Description Few clouds
Wind 3 km/h from South-East (126°)
Cloud Cover 11%
Precipitation Rain: none, Snow: none
Sunrise 06:31
Sunset 20:16
Lounges Global (Turkish Airlines) Lounge, Central Terminal
American Airlines Flagship Lounge, North Terminal
American Airlines Admirals Club , North Terminal
American Airlines Admirals Club, North Terminal
LATAM VIP Lounge TEMPORARILY CLOSED, South Terminal
Rotations During the last 90 days there were
155 flights from LHR
1 flights from LGW
1 flights from IAD
155 flights to LHR
1 flights to MCO


© 2017-2022 Speedbird Online